Thursday, June 21, 2018, 12:00 PM EDT
Back to Local

KLNS, Lancaster Airport

Location: Lititz, PA, United States Lat: 40.117
Local Time: 12:00 PM EDT (16:00 GMT) Lon: -76.3
Time Zone: US/Eastern Elev: 403 ft

Show me the last for .
Show Decoded

2018-06-21 10:53 METAR KLNS 211453Z 04006KT 10SM OVC047 23/17 A2982 RMK AO2 SLP095 60001
                 T02330172 51010 =
2018-06-21 09:53 METAR KLNS 211353Z 05006KT 10SM OVC038 21/18 A2981 RMK AO2 RAB00E19 SLP094 P0000
                 T02110178 =
2018-06-21 08:53 METAR KLNS 211253Z 36006KT 9SM OVC034 21/19 A2981 RMK AO2 RAB1155E19 SLP093
                 P0001 T02060189 =
2018-06-21 08:29 METAR KLNS 211229Z 03008KT 6SM BR OVC030 20/19 A2981 RMK AO2 RAB1155E19 P0001
                 T02000189 =
2018-06-21 08:17 METAR KLNS 211217Z 05005KT 6SM -RA BR OVC028 20/19 A2980 RMK AO2 RAB1155 P0001
                 T02000189 =
2018-06-21 08:09 METAR KLNS 211209Z 04007KT 2 1/2SM -RA BR OVC028 20/18 A2980 RMK AO2 RAB1155
                 P0001 T02000183 =
2018-06-21 07:53 METAR KLNS 211153Z 04008KT 6SM BR OVC026 20/18 A2979 RMK AO2 RAB01E10 SLP085
                 P0000 60000 70001 T02000183 10222 20200 53015 =
2018-06-21 06:53 METAR KLNS 211053Z 04011KT 10SM OVC026 21/18 A2978 RMK AO2 SLP080 T02060183 =
2018-06-21 05:53 METAR KLNS 210953Z 04007KT 9SM OVC026 21/19 A2975 RMK AO2 SLP071 T02110189 =
2018-06-21 04:53 METAR KLNS 210853Z AUTO 35004KT 8SM OVC023 22/19 A2975 RMK AO2 RAE0754 SLP070
                 P0000 60000 T02170194 55004 =
2018-06-21 03:53 METAR KLNS 210753Z AUTO 30003KT 7SM -RA OVC022 22/20 A2974 RMK AO2 RAB33 SLP067
                 P0000 T02170200 =
2018-06-21 02:53 METAR KLNS 210653Z AUTO 26005KT 8SM OVC022 22/20 A2975 RMK AO2 SLP070 T02220200
                 =
2018-06-21 01:53 METAR KLNS 210553Z AUTO 27003KT 9SM OVC020 22/19 A2976 RMK AO2 SLP075 60000
                 T02220194 10256 20217 58006 =
2018-06-21 01:29 METAR KLNS 210529Z AUTO 25003KT 9SM BKN021 22/19 A2977 RMK AO2 T02220194 =
2018-06-21 00:53 METAR KLNS 210453Z AUTO 30004KT 10SM SCT021 22/19 A2977 RMK AO2 SLP078 T02170194
                 402780172 =
2018-06-21 00:48 METAR KLNS 210448Z AUTO 29003KT 10SM SCT023 22/19 A2977 RMK AO2 =
2018-06-20 23:53 METAR KLNS 210353Z AUTO 00000KT 10SM OVC024 23/20 A2978 RMK AO2 SLP081 T02280200
                 =
2018-06-20 22:53 METAR KLNS 210253Z 27003KT 10SM OVC029 23/19 A2979 RMK AO2 SLP086 60000
                 T02280194 51005 =
2018-06-20 22:51 METAR KLNS 210251Z 27003KT 10SM OVC029 23/19 A2979 RMK AO2 =
2018-06-20 21:53 METAR KLNS 210153Z AUTO 32003KT 10SM BKN032 23/19 A2979 RMK AO2 SLP083 T02280189
                 =
2018-06-20 20:53 METAR KLNS 210053Z AUTO 34003KT 10SM OVC035 23/21 A2978 RMK AO2 RAE38 SLP080
                 P0000 T02330206 =
2018-06-20 19:53 METAR KLNS 202353Z 00000KT 10SM -RA FEW046 SCT120 26/18 A2979 RMK AO2 RAB20
                 SLP083 P0001 60001 T02560183 10278 20250 55007 =
2018-06-20 18:53 METAR KLNS 202253Z VRB03KT 10SM BKN050 26/18 A2978 RMK AO2 SLP082 T02610183 =
2018-06-20 17:53 METAR KLNS 202153Z 33004KT 10SM BKN055 27/18 A2979 RMK AO2 SLP084 T02670178 =
2018-06-20 16:53 METAR KLNS 202053Z 29005KT 10SM OVC050 26/17 A2981 RMK AO2 SLP091 60000
                 T02610172 58012 =
2018-06-20 16:15 METAR KLNS 202015Z 31005KT 10SM BKN050 27/17 A2981 RMK AO2 T02720172 =
2018-06-20 15:53 METAR KLNS 201953Z 28003KT 10SM CLR 26/17 A2981 RMK AO2 SLP091 T02610172 =
2018-06-20 14:53 METAR KLNS 201853Z 28005KT 10SM OVC055 26/17 A2984 RMK AO2 RAB09E29 SLP102 P0000
                 T02560167 =
2018-06-20 13:53 METAR KLNS 201753Z 26006KT 10SM SCT065 OVC075 28/16 A2984 RMK AO2 SLP103
                 T02780156 10278 20217 56015 =
2018-06-20 12:53 METAR KLNS 201653Z 36003KT 10SM BKN080 BKN095 28/15 A2986 RMK AO2 SLP107
                 T02780150 =

Support USWX by starting your Amazon purchase here.